Time;durP1;ratioP1;P1;durP2;ratioP2;P2;SDS_P1;SDS_P2;PMS_P1;PMS_P2;Temp;Humidity;BMP_temperature;BMP_pressure;BME280_temperature;BME280_humidity;BME280_pressure;Samples;Min_cycle;Max_cycle;Signal;HPM_P1;HPM_P2
2024/03/16 00:00:16;;;;;;;62.80;20.20;;;;;;;7.10;100.00;99803.75;5071444;28;20048;-77
2024/03/16 00:02:41;;;;;;;62.47;20.58;;;;;;;7.22;100.00;99820.88;5071645;28;20037;-75
2024/03/16 00:05:07;;;;;;;52.65;20.98;;;;;;;7.16;100.00;99813.66;5071190;28;20060;-76
2024/03/16 00:07:32;;;;;;;55.08;20.70;;;;;;;7.13;100.00;99803.34;5054942;28;20092;-76
2024/03/16 00:09:59;;;;;;;61.85;21.25;;;;;;;7.20;100.00;99811.41;5038551;28;20022;-75
2024/03/16 00:12:24;;;;;;;56.90;22.25;;;;;;;7.20;100.00;99819.41;5051521;28;20034;-76
2024/03/16 00:14:50;;;;;;;61.95;21.42;;;;;;;7.16;100.00;99820.84;5029300;28;20040;-75
2024/03/16 00:17:20;;;;;;;61.40;22.17;;;;;;;7.13;100.00;99821.25;5042626;28;20072;-75
2024/03/16 00:19:46;;;;;;;66.68;21.55;;;;;;;7.04;100.00;99815.25;5052956;28;20013;-76
2024/03/16 00:22:11;;;;;;;61.03;22.88;;;;;;;7.08;100.00;99819.16;5063392;28;20101;-75
2024/03/16 00:24:37;;;;;;;66.15;22.52;;;;;;;7.05;100.00;99814.22;5064868;28;20029;-76
2024/03/16 00:27:02;;;;;;;59.03;21.50;;;;;;;7.00;100.00;99814.00;5063828;28;20025;-76
2024/03/16 00:29:28;;;;;;;59.97;22.80;;;;;;;7.02;100.00;99815.47;5065052;28;20032;-76
2024/03/16 00:31:54;;;;;;;58.70;21.83;;;;;;;7.02;100.00;99814.66;5047329;28;20511;-76
2024/03/16 00:34:19;;;;;;;54.58;23.23;;;;;;;6.99;100.00;99823.06;5063225;28;20025;-76
2024/03/16 00:36:45;;;;;;;65.75;24.58;;;;;;;6.92;100.00;99803.47;5062096;28;20039;-77
2024/03/16 00:39:15;;;;;;;52.05;24.05;;;;;;;6.96;100.00;99802.88;5041988;28;20476;-77
2024/03/16 00:41:43;;;;;;;58.85;24.23;;;;;;;6.95;100.00;99811.09;5036878;28;20059;-77
2024/03/16 00:44:08;;;;;;;61.78;23.40;;;;;;;6.92;100.00;99812.34;5042310;28;20057;-76
2024/03/16 00:46:34;;;;;;;56.17;22.17;;;;;;;6.70;100.00;99765.34;5024406;28;20033;-76
2024/03/16 00:49:00;;;;;;;57.28;21.55;;;;;;;6.92;100.00;99807.00;5023395;28;20118;-77
2024/03/16 00:51:28;;;;;;;61.67;22.27;;;;;;;6.87;100.00;99792.56;5021712;28;20029;-76
2024/03/16 00:53:54;;;;;;;59.13;21.52;;;;;;;6.92;100.00;99806.13;5037367;28;20119;-76
2024/03/16 00:56:23;;;;;;;53.50;20.50;;;;;;;6.89;100.00;99795.84;5050660;28;20060;-76
2024/03/16 00:58:49;;;;;;;62.85;21.00;;;;;;;6.90;100.00;99794.84;5057033;28;20033;-76
2024/03/16 01:01:14;;;;;;;60.15;21.45;;;;;;;6.92;100.00;99787.41;5057005;28;20573;-76
2024/03/16 01:03:41;;;;;;;55.17;21.42;;;;;;;6.92;100.00;99792.78;5040971;28;20057;-76
2024/03/16 01:06:06;;;;;;;59.13;21.38;;;;;;;6.82;100.00;99772.59;5056919;28;20029;-75
2024/03/16 01:08:32;;;;;;;52.90;21.30;;;;;;;6.80;100.00;99765.78;5057784;28;20025;-76
2024/03/16 01:10:58;;;;;;;53.40;20.33;;;;;;;6.87;100.00;99776.53;5057831;28;20035;-76
2024/03/16 01:13:23;;;;;;;63.50;20.05;;;;;;;6.93;100.00;99787.25;5040221;28;20025;-76
2024/03/16 01:15:49;;;;;;;61.05;20.40;;;;;;;6.94;100.00;99793.41;5058068;28;20096;-76
2024/03/16 01:18:15;;;;;;;50.47;19.13;;;;;;;6.91;100.00;99775.91;5058013;28;20036;-75
2024/03/16 01:20:44;;;;;;;56.63;19.23;;;;;;;6.94;100.00;99786.19;5056446;28;20384;-76
2024/03/16 01:23:12;;;;;;;62.85;20.10;;;;;;;6.97;100.00;99788.47;5036864;28;20041;-76
2024/03/16 01:25:38;;;;;;;57.10;20.13;;;;;;;6.97;100.00;99768.94;5020595;28;20037;-76
2024/03/16 01:28:04;;;;;;;59.17;20.30;;;;;;;6.94;100.00;99783.53;5004739;28;20508;-76
2024/03/16 01:30:29;;;;;;;56.25;21.13;;;;;;;6.92;100.00;99780.25;5036820;28;20489;-76
2024/03/16 01:32:54;;;;;;;55.83;21.45;;;;;;;6.94;100.00;99793.41;5036420;28;20035;-76
2024/03/16 01:35:20;;;;;;;54.20;20.52;;;;;;;6.75;100.00;99757.53;5037189;28;20052;-76
2024/03/16 01:37:46;;;;;;;52.65;20.67;;;;;;;6.91;100.00;99777.75;5036622;28;20535;-77
2024/03/16 01:40:11;;;;;;;55.55;20.95;;;;;;;6.89;100.00;99780.66;5018336;28;20093;-77
2024/03/16 01:42:36;;;;;;;55.95;20.33;;;;;;;6.88;100.00;99767.47;5037967;28;20036;-76
2024/03/16 01:45:07;;;;;;;61.63;20.08;;;;;;;6.80;100.00;99755.09;5044231;28;20396;-76
2024/03/16 01:47:32;;;;;;;55.13;19.85;;;;;;;6.69;100.00;99727.09;5044105;28;20408;-76
2024/03/16 01:49:59;;;;;;;57.33;19.90;;;;;;;7.00;100.00;99776.56;5061827;28;20036;-76
2024/03/16 01:52:25;;;;;;;50.10;19.88;;;;;;;7.01;100.00;99778.19;5060724;28;20025;-76
2024/03/16 01:54:50;;;;;;;51.30;18.30;;;;;;;6.97;100.00;99761.72;5060380;28;20029;-76
2024/03/16 01:57:16;;;;;;;48.08;18.13;;;;;;;7.04;100.00;99770.59;5059841;28;20055;-76
2024/03/16 01:59:41;;;;;;;53.75;18.90;;;;;;;6.93;100.00;99748.97;5040670;28;20049;-76
2024/03/16 02:02:31;;;;;;;52.00;18.42;;;;;;;7.06;100.00;99775.75;5057893;28;20044;-76
2024/03/16 02:04:57;;;;;;;50.55;17.92;;;;;;;7.02;100.00;99766.50;5047412;28;20064;-76
2024/03/16 02:07:24;;;;;;;60.53;20.58;;;;;;;7.03;100.00;99774.31;5020506;28;20208;-77
2024/03/16 02:09:49;;;;;;;58.35;19.23;;;;;;;7.04;100.00;99767.91;5037999;28;20033;-76
2024/03/16 02:12:14;;;;;;;59.92;21.10;;;;;;;7.05;100.00;99769.59;5037211;28;20033;-76
2024/03/16 02:14:42;;;;;;;63.47;20.67;;;;;;;6.97;100.00;99751.03;5037022;28;20037;-76
2024/03/16 02:17:10;;;;;;;60.47;20.02;;;;;;;7.02;100.00;99763.81;5036403;28;20032;-76
2024/03/16 02:19:39;;;;;;;58.00;20.27;;;;;;;7.03;100.00;99774.31;5035719;28;20029;-76
2024/03/16 02:22:09;;;;;;;63.33;21.45;;;;;;;6.95;100.00;99752.25;5035912;28;20388;-76
2024/03/16 02:24:35;;;;;;;58.90;20.40;;;;;;;7.06;100.00;99767.75;5036003;28;20029;-76
2024/03/16 02:27:01;;;;;;;65.88;21.52;;;;;;;7.02;100.00;99763.81;5037375;28;20557;-76
2024/03/16 02:29:32;;;;;;;53.50;20.38;;;;;;;6.86;100.00;99740.94;5035643;28;20041;-76
2024/03/16 02:31:58;;;;;;;65.70;21.02;;;;;;;6.92;100.00;99739.28;5036886;28;20096;-76
2024/03/16 02:34:23;;;;;;;62.00;20.25;;;;;;;7.07;100.00;99754.16;5033815;28;20519;-76
2024/03/16 02:36:49;;;;;;;56.13;20.05;;;;;;;7.09;100.00;99758.50;5033602;28;20029;-76
2024/03/16 02:39:14;;;;;;;68.15;21.13;;;;;;;6.97;100.00;99742.19;5018304;28;20386;-75
2024/03/16 02:41:40;;;;;;;86.65;21.48;;;;;;;7.00;100.00;99758.66;5021181;28;20040;-77
2024/03/16 02:44:05;;;;;;;65.20;20.35;;;;;;;7.01;100.00;99760.31;5040611;28;20029;-76
2024/03/16 02:46:31;;;;;;;63.70;20.70;;;;;;;7.00;100.00;99749.81;5040558;28;20655;-76
2024/03/16 02:48:57;;;;;;;60.72;20.83;;;;;;;7.02;100.00;99745.91;5022619;28;20450;-76
2024/03/16 02:51:22;;;;;;;67.57;20.95;;;;;;;7.04;100.00;99761.75;5041109;28;20029;-76
2024/03/16 02:53:50;;;;;;;62.50;20.45;;;;;;;7.04;100.00;99749.19;5040584;28;20064;-76
2024/03/16 02:56:15;;;;;;;49.58;19.55;;;;;;;7.04;100.00;99753.72;5023151;28;20044;-76
2024/03/16 02:58:41;;;;;;;54.60;19.98;;;;;;;7.03;100.00;99750.22;5022681;28;20170;-76
2024/03/16 03:01:06;;;;;;;55.63;19.10;;;;;;;6.97;100.00;99737.66;5038860;28;20049;-77
2024/03/16 03:03:31;;;;;;;51.50;18.05;;;;;;;7.04;100.00;99741.16;5022541;28;20026;-76
2024/03/16 03:05:57;;;;;;;61.28;19.15;;;;;;;7.06;100.00;99751.69;5022541;28;20491;-76
2024/03/16 03:08:22;;;;;;;59.83;19.38;;;;;;;6.88;100.00;99720.16;5023246;28;20312;-76
2024/03/16 03:10:48;;;;;;;70.68;19.38;;;;;;;6.91;100.00;99716.25;5038370;28;20029;-76
2024/03/16 03:13:13;;;;;;;62.78;19.27;;;;;;;6.97;100.00;99728.81;5038611;28;20115;-76
2024/03/16 03:15:39;;;;;;;65.43;19.85;;;;;;;7.02;100.00;99737.91;5040371;28;20088;-76
2024/03/16 03:18:05;;;;;;;59.25;19.10;;;;;;;7.04;100.00;99745.69;5039494;28;20033;-76
2024/03/16 03:20:31;;;;;;;57.30;18.45;;;;;;;6.81;100.00;99704.09;5038099;28;20049;-76
2024/03/16 03:22:57;;;;;;;51.03;18.60;;;;;;;6.87;100.00;99723.84;5038431;28;20025;-77
2024/03/16 03:25:22;;;;;;;57.45;18.80;;;;;;;7.02;100.00;99731.72;5038014;28;20059;-76
2024/03/16 03:27:48;;;;;;;64.53;20.13;;;;;;;7.03;100.00;99730.69;5037328;28;20029;-77
2024/03/16 03:30:13;;;;;;;64.22;19.80;;;;;;;6.96;100.00;99725.31;5019480;28;20033;-78
2024/03/16 03:32:38;;;;;;;67.00;20.65;;;;;;;6.99;100.00;99724.94;5037521;28;20737;-76
2024/03/16 03:35:05;;;;;;;68.85;19.45;;;;;;;6.87;100.00;99715.00;5046144;28;20029;-76
2024/03/16 03:37:31;;;;;;;60.55;18.83;;;;;;;6.92;100.00;99737.47;5040701;28;20035;-76
2024/03/16 03:39:56;;;;;;;69.80;19.30;;;;;;;6.91;100.00;99733.13;5023601;28;20029;-77
2024/03/16 03:42:29;;;;;;;61.72;19.65;;;;;;;6.92;100.00;99725.91;5040674;28;20411;-76
2024/03/16 03:45:10;;;;;;;67.00;19.15;;;;;;;6.85;100.00;99720.53;5056808;28;20064;-76
2024/03/16 03:48:00;;;;;;;69.15;19.67;;;;;;;6.88;100.00;99730.84;5058306;28;20075;-78
2024/03/16 03:50:32;;;;;;;78.07;19.52;;;;;;;6.73;100.00;99716.81;5029354;28;20037;-77
2024/03/16 03:53:04;;;;;;;60.30;18.52;;;;;;;6.76;100.00;99711.91;5056767;28;20043;-76
2024/03/16 03:55:29;;;;;;;65.95;19.40;;;;;;;6.81;100.00;99725.47;5057142;28;20114;-77
2024/03/16 03:57:55;;;;;;;56.08;17.48;;;;;;;6.64;100.00;99702.00;5057184;28;20033;-77
2024/03/16 04:00:20;;;;;;;64.57;17.73;;;;;;;6.78;100.00;99723.19;5057412;28;20049;-77
2024/03/16 04:02:46;;;;;;;58.97;16.65;;;;;;;6.73;100.00;99712.31;5058125;28;20086;-77
2024/03/16 04:05:12;;;;;;;54.15;16.70;;;;;;;6.79;100.00;99721.38;5040366;28;20062;-77
2024/03/16 04:07:37;;;;;;;57.38;16.45;;;;;;;6.79;100.00;99724.06;5058850;28;20033;-76
2024/03/16 04:10:04;;;;;;;46.85;13.60;;;;;;;6.75;100.00;99718.25;5058058;28;20306;-75
2024/03/16 04:12:31;;;;;;;47.15;16.35;;;;;;;6.71;100.00;99700.16;5058222;28;20056;-76
2024/03/16 04:14:57;;;;;;;50.45;15.02;;;;;;;6.47;100.00;99678.28;5056321;28;20031;-76
2024/03/16 04:17:22;;;;;;;43.08;14.93;;;;;;;6.75;100.00;99720.94;5039990;28;20092;-77
2024/03/16 04:19:48;;;;;;;51.40;14.65;;;;;;;6.73;100.00;99723.00;5056895;28;20039;-76
2024/03/16 04:22:15;;;;;;;46.35;15.25;;;;;;;6.74;100.00;99718.47;5058145;28;20071;-76
2024/03/16 04:24:40;;;;;;;51.45;14.82;;;;;;;6.68;100.00;99716.59;5057599;28;20036;-76
2024/03/16 04:27:06;;;;;;;48.92;14.07;;;;;;;6.68;100.00;99720.09;5041502;28;20025;-76
2024/03/16 04:29:32;;;;;;;36.50;12.38;;;;;;;6.67;100.00;99714.94;5024976;28;20040;-77
2024/03/16 04:31:58;;;;;;;30.92;12.75;;;;;;;6.59;100.00;99716.78;5057779;28;20404;-77
2024/03/16 04:34:25;;;;;;;31.90;12.20;;;;;;;6.38;100.00;99679.47;5058194;28;20175;-77
2024/03/16 04:36:51;;;;;;;25.63;10.38;;;;;;;6.46;100.00;99691.84;5057850;28;20062;-77
2024/03/16 04:39:17;;;;;;;27.42;10.23;;;;;;;6.63;100.00;99725.22;5057120;28;20036;-79
2024/03/16 04:41:43;;;;;;;28.55;10.20;;;;;;;6.56;100.00;99714.50;5040166;28;20025;-77
2024/03/16 04:44:09;;;;;;;27.20;9.60;;;;;;;6.66;100.00;99721.34;5056900;28;20041;-77
2024/03/16 04:46:34;;;;;;;26.13;10.00;;;;;;;6.53;100.00;99701.53;5057292;28;20092;-77
2024/03/16 04:49:00;;;;;;;28.65;9.88;;;;;;;6.20;100.00;99652.50;5039519;28;20025;-76
2024/03/16 04:51:26;;;;;;;29.23;9.63;;;;;;;6.57;100.00;99707.31;5058069;28;20491;-78
2024/03/16 04:53:51;;;;;;;23.80;9.02;;;;;;;6.66;100.00;99734.69;5056597;28;20079;-76
2024/03/16 04:56:17;;;;;;;21.63;7.13;;;;;;;6.63;100.00;99740.44;5058095;28;20143;-77
2024/03/16 04:58:42;;;;;;;17.70;6.95;;;;;;;6.56;100.00;99732.41;5073055;28;20052;-77
2024/03/16 05:01:13;;;;;;;17.88;5.28;;;;;;;6.58;100.00;99741.03;5057714;28;20484;-78
2024/03/16 05:03:38;;;;;;;13.95;4.25;;;;;;;6.48;100.00;99738.72;5072531;28;20118;-77
2024/03/16 05:06:04;;;;;;;10.07;3.50;;;;;;;6.30;100.00;99723.22;5023128;28;20028;-77
2024/03/16 05:08:30;;;;;;;11.00;2.80;;;;;;;6.29;100.00;99737.63;5055808;28;20029;-77
2024/03/16 05:10:58;;;;;;;7.45;1.83;;;;;;;6.29;100.00;99752.78;5056898;28;20104;-76
2024/03/16 05:13:24;;;;;;;11.75;1.60;;;;;;;6.09;100.00;99756.19;5057017;28;20082;-76
2024/03/16 05:15:49;;;;;;;8.60;1.40;;;;;;;5.96;100.00;99766.78;5057436;28;20041;-78
2024/03/16 05:18:15;;;;;;;9.50;1.42;;;;;;;5.95;100.00;99764.28;5055763;28;20067;-77
2024/03/16 05:20:40;;;;;;;9.45;1.48;;;;;;;5.82;100.00;99754.31;5038839;28;20028;-77
2024/03/16 05:23:06;;;;;;;12.68;1.70;;;;;;;5.81;100.00;99768.69;5073151;28;20060;-77
2024/03/16 05:25:31;;;;;;;15.95;2.20;;;;;;;5.69;100.00;99759.53;5057182;28;20040;-76
2024/03/16 05:27:57;;;;;;;12.95;2.00;;;;;;;5.57;100.00;99741.41;5043903;28;20598;-77
2024/03/16 05:30:22;;;;;;;12.80;2.15;;;;;;;5.64;100.00;99768.97;5036723;28;20528;-77
2024/03/16 05:32:47;;;;;;;13.60;1.92;;;;;;;5.60;100.00;99788.22;5019572;28;20492;-77
2024/03/16 05:35:13;;;;;;;18.33;2.03;;;;;;;5.52;100.00;99781.16;5036445;28;20029;-77
2024/03/16 05:37:38;;;;;;;21.20;2.55;;;;;;;5.52;100.00;99788.34;5036004;28;20079;-77
2024/03/16 05:40:04;;;;;;;13.60;2.08;;;;;;;5.45;100.00;99784.78;5036722;28;20017;-77
2024/03/16 05:42:30;;;;;;;18.38;2.85;;;;;;;5.36;100.00;99778.75;5053695;28;20155;-77
2024/03/16 05:44:57;;;;;;;20.20;2.20;;;;;;;5.17;100.00;99751.69;5052630;28;20489;-76
2024/03/16 05:47:23;;;;;;;19.13;2.90;;;;;;;5.34;100.00;99791.47;5035124;28;20029;-77
2024/03/16 05:49:49;;;;;;;26.40;3.22;;;;;;;5.31;100.00;99802.50;5018782;28;20353;-76
2024/03/16 05:52:14;;;;;;;21.27;2.70;;;;;;;5.06;100.00;99764.69;5035099;28;20076;-81
2024/03/16 05:54:39;;;;;;;25.73;2.95;;;;;;;5.28;100.00;99810.88;5040789;28;20041;-75
2024/03/16 05:57:05;;;;;;;21.80;2.65;;;;;;;5.24;100.00;99812.28;5041591;28;20128;-75
2024/03/16 05:59:31;;;;;;;20.90;2.88;;;;;;;5.24;100.00;99814.97;5042807;28;20042;-74
2024/03/16 06:01:57;;;;;;;18.85;2.90;;;;;;;5.20;100.00;99811.84;5046067;28;20030;-74
2024/03/16 06:04:22;;;;;;;21.40;2.85;;;;;;;5.14;100.00;99802.75;5044833;28;20046;-75
2024/03/16 06:06:47;;;;;;;20.80;2.85;;;;;;;5.13;100.00;99817.09;5046278;28;20037;-74
2024/03/16 06:09:13;;;;;;;24.67;3.17;;;;;;;5.05;100.00;99817.19;5047158;28;20025;-74
2024/03/16 06:11:38;;;;;;;23.00;2.50;;;;;;;5.03;100.00;99818.38;5062746;28;20030;-74
2024/03/16 06:14:05;;;;;;;21.70;2.88;;;;;;;5.06;100.00;99823.34;5048415;28;20197;-76
2024/03/16 06:16:30;;;;;;;20.95;2.55;;;;;;;4.99;100.00;99823.28;5053694;28;20017;-74
2024/03/16 06:18:56;;;;;;;13.35;2.08;;;;;;;5.01;100.00;99817.78;5065329;28;20049;-76
2024/03/16 06:21:21;;;;;;;29.38;3.28;;;;;;;5.01;100.00;99825.78;5063879;28;20021;-73
2024/03/16 06:23:48;;;;;;;19.98;2.85;;;;;;;5.00;100.00;99824.94;5028149;28;20051;-74
2024/03/16 06:26:18;;;;;;;22.30;2.60;;;;;;;4.95;100.00;99816.66;5043397;28;20067;-74
2024/03/16 06:28:54;;;;;;;26.08;3.13;;;;;;;4.94;100.00;99829.19;5042411;28;20033;-75
2024/03/16 06:31:32;;;;;;;17.13;1.98;;;;;;;4.93;100.00;99835.53;5042996;28;20053;-75
2024/03/16 06:33:59;;;;;;;15.60;2.17;;;;;;;4.91;100.00;99839.38;5064121;28;20086;-75
2024/03/16 06:36:25;;;;;;;16.80;2.70;;;;;;;4.90;100.00;99843.03;5063581;28;21047;-72
2024/03/16 06:38:51;;;;;;;13.45;2.35;;;;;;;4.93;100.00;99840.88;5057112;28;20037;-73
2024/03/16 06:41:17;;;;;;;13.55;2.53;;;;;;;4.95;100.00;99846.81;5056658;28;20502;-74
2024/03/16 06:43:42;;;;;;;14.38;2.80;;;;;;;4.46;100.00;99767.47;5039904;28;20108;-72
2024/03/16 06:46:10;;;;;;;18.80;2.80;;;;;;;4.82;100.00;99827.16;5057183;28;20057;-76
2024/03/16 06:48:36;;;;;;;19.98;3.17;;;;;;;5.00;100.00;99848.94;5039496;28;20029;-74
2024/03/16 06:51:02;;;;;;;20.42;3.10;;;;;;;5.03;100.00;99848.53;5039398;28;20034;-74
2024/03/16 06:53:28;;;;;;;14.60;2.40;;;;;;;5.06;100.00;99842.00;5055909;28;20087;-73
2024/03/16 06:55:55;;;;;;;18.85;3.38;;;;;;;4.87;100.00;99820.28;5040238;28;20041;-74
2024/03/16 06:58:21;;;;;;;21.65;2.70;;;;;;;5.07;100.00;99859.69;5055428;28;20060;-73
2024/03/16 07:00:48;;;;;;;11.90;2.30;;;;;;;5.13;100.00;99850.91;5040110;28;20054;-73
2024/03/16 07:03:15;;;;;;;16.25;2.13;;;;;;;5.05;100.00;99840.38;5039990;28;20044;-75
2024/03/16 07:05:44;;;;;;;18.33;3.30;;;;;;;5.06;100.00;99852.69;5039677;28;20033;-74
2024/03/16 07:08:10;;;;;;;21.13;2.70;;;;;;;5.15;100.00;99854.22;5055107;28;20091;-74
2024/03/16 07:10:37;;;;;;;14.65;2.40;;;;;;;5.10;100.00;99864.63;5054434;28;20116;-74
2024/03/16 07:13:02;;;;;;;18.42;2.47;;;;;;;5.15;100.00;99863.06;5038322;28;20088;-73
2024/03/16 07:15:29;;;;;;;21.50;3.00;;;;;;;5.12;100.00;99855.44;5038382;28;20038;-74
2024/03/16 07:17:54;;;;;;;13.73;2.47;;;;;;;5.17;100.00;99852.22;5055386;28;20068;-74
2024/03/16 07:20:20;;;;;;;19.02;3.20;;;;;;;5.21;100.00;99869.50;5038164;28;20056;-74
2024/03/16 07:22:45;;;;;;;20.42;3.28;;;;;;;5.25;100.00;99857.44;5043709;28;20034;-74
2024/03/16 07:25:11;;;;;;;20.38;3.15;;;;;;;5.24;100.00;99860.28;5050146;28;20044;-74
2024/03/16 07:27:36;;;;;;;20.67;2.78;;;;;;;5.21;100.00;99845.50;5065192;28;20010;-74
2024/03/16 07:30:02;;;;;;;20.70;3.10;;;;;;;5.26;100.00;99840.41;5067796;28;20049;-75
2024/03/16 07:32:27;;;;;;;21.35;3.20;;;;;;;5.30;100.00;99851.56;5044633;28;20094;-74
2024/03/16 07:34:53;;;;;;;21.48;3.40;;;;;;;5.37;100.00;99863.94;5060592;28;20120;-75
2024/03/16 07:37:19;;;;;;;23.67;3.15;;;;;;;5.45;100.00;99868.31;5065251;28;20507;-74
2024/03/16 07:39:45;;;;;;;23.00;3.15;;;;;;;5.50;100.00;99868.59;5050453;28;20032;-74
2024/03/16 07:42:11;;;;;;;21.15;3.15;;;;;;;5.52;100.00;99871.88;5064562;28;20034;-74
2024/03/16 07:44:40;;;;;;;19.25;3.08;;;;;;;5.39;100.00;99847.72;5062202;28;20021;-74
2024/03/16 07:47:05;;;;;;;23.27;3.60;;;;;;;5.55;100.00;99874.16;5039592;28;20029;-74
2024/03/16 07:49:31;;;;;;;18.15;3.33;;;;;;;5.50;100.00;99855.25;5022144;28;20083;-74
2024/03/16 07:51:57;;;;;;;23.67;3.40;;;;;;;5.60;100.00;99885.13;5054885;28;20148;-74
2024/03/16 07:54:23;;;;;;;24.73;3.30;;;;;;;5.57;100.00;99872.16;5038884;28;20033;-74
2024/03/16 07:56:48;;;;;;;24.13;3.83;;;;;;;5.62;100.00;99883.06;5041156;28;20026;-74
2024/03/16 07:59:15;;;;;;;27.85;4.03;;;;;;;5.45;100.00;99852.31;5040643;28;20456;-74
2024/03/16 08:01:41;;;;;;;25.00;3.67;;;;;;;5.47;100.00;99850.28;5056343;28;20032;-74
2024/03/16 08:04:06;;;;;;;28.25;3.72;;;;;;;5.59;100.00;99882.63;5040494;28;20030;-74
2024/03/16 08:06:32;;;;;;;23.85;4.20;;;;;;;5.60;100.00;99876.28;5039376;28;20061;-74
2024/03/16 08:08:57;;;;;;;28.85;4.88;;;;;;;5.61;100.00;99868.09;5056165;28;20029;-74
2024/03/16 08:11:24;;;;;;;32.95;4.63;;;;;;;5.63;100.00;99862.56;5056382;28;20029;-74
2024/03/16 08:13:49;;;;;;;22.33;4.15;;;;;;;5.62;100.00;99879.56;5041495;28;20049;-74
2024/03/16 08:16:15;;;;;;;33.63;4.63;;;;;;;5.61;100.00;99878.75;5039916;28;20418;-74
2024/03/16 08:18:40;;;;;;;25.25;4.43;;;;;;;5.59;100.00;99879.97;5023736;28;20032;-75
2024/03/16 08:21:07;;;;;;;29.15;4.50;;;;;;;5.64;100.00;99897.06;5039099;28;20191;-75
2024/03/16 08:23:32;;;;;;;26.52;4.93;;;;;;;5.63;100.00;99890.09;5055705;28;20036;-74
2024/03/16 08:25:58;;;;;;;38.25;6.05;;;;;;;5.63;100.00;99892.75;5040455;28;20041;-74
2024/03/16 08:28:23;;;;;;;36.08;5.75;;;;;;;5.67;100.00;99887.03;5040718;28;20034;-74
2024/03/16 08:30:48;;;;;;;36.08;4.90;;;;;;;5.65;100.00;99882.69;5039195;28;20034;-74
2024/03/16 08:33:14;;;;;;;33.80;5.03;;;;;;;5.63;100.00;99873.25;5056585;28;20084;-75
2024/03/16 08:35:39;;;;;;;40.13;5.35;;;;;;;5.70;100.00;99894.66;5042017;28;20044;-74
2024/03/16 08:38:05;;;;;;;36.53;5.43;;;;;;;5.55;100.00;99866.16;5022322;28;20417;-74
2024/03/16 08:40:32;;;;;;;32.50;6.10;;;;;;;5.61;100.00;99861.91;5039271;28;20021;-74
2024/03/16 08:42:57;;;;;;;40.10;5.63;;;;;;;5.54;100.00;99859.19;5055879;28;20084;-74
2024/03/16 08:45:23;;;;;;;41.40;5.90;;;;;;;5.71;100.00;99893.63;5039237;28;20030;-74
2024/03/16 08:47:49;;;;;;;31.15;5.18;;;;;;;5.72;100.00;99888.09;5039890;28;20029;-74
2024/03/16 08:50:14;;;;;;;34.30;5.40;;;;;;;5.71;100.00;99882.97;5055315;28;20075;-74
2024/03/16 08:52:39;;;;;;;37.10;5.38;;;;;;;5.76;100.00;99888.53;5037628;28;20097;-74
2024/03/16 08:55:05;;;;;;;28.17;5.00;;;;;;;5.77;100.00;99893.72;5037629;28;20029;-74
2024/03/16 08:57:30;;;;;;;35.55;5.50;;;;;;;5.83;100.00;99892.94;5037685;28;20040;-74
2024/03/16 08:59:57;;;;;;;35.85;5.38;;;;;;;5.80;100.00;99892.50;5052527;28;20045;-74
2024/03/16 09:02:26;;;;;;;36.60;6.30;;;;;;;5.83;100.00;99892.13;5037362;28;20030;-74
2024/03/16 09:04:51;;;;;;;33.72;5.57;;;;;;;5.64;100.00;99851.69;5037257;28;20029;-75
2024/03/16 09:07:19;;;;;;;35.55;6.30;;;;;;;5.80;100.00;99892.50;5037592;28;20094;-74
2024/03/16 09:09:45;;;;;;;43.78;6.88;;;;;;;5.68;100.00;99865.47;5035920;28;20037;-74
2024/03/16 09:12:11;;;;;;;33.47;5.55;;;;;;;5.78;100.00;99895.34;5038107;28;20025;-74
2024/03/16 09:14:37;;;;;;;34.03;6.22;;;;;;;5.86;100.00;99902.41;5039482;28;20511;-74
2024/03/16 09:17:04;;;;;;;29.75;5.00;;;;;;;5.73;100.00;99887.09;5023524;28;20048;-74
2024/03/16 09:19:30;;;;;;;35.90;5.90;;;;;;;5.79;100.00;99899.66;5040439;28;20096;-74
2024/03/16 09:21:55;;;;;;;36.78;5.50;;;;;;;5.81;100.00;99892.31;5041346;28;20021;-74
2024/03/16 09:24:20;;;;;;;44.65;6.55;;;;;;;5.81;100.00;99886.13;5056247;28;20040;-74
2024/03/16 09:26:46;;;;;;;32.88;5.75;;;;;;;5.84;100.00;99883.09;5057058;28;20033;-74
2024/03/16 09:29:11;;;;;;;40.10;5.80;;;;;;;5.84;100.00;99885.75;5057275;28;20041;-74
2024/03/16 09:31:37;;;;;;;30.33;5.30;;;;;;;5.92;100.00;99884.78;5040404;28;20124;-74
2024/03/16 09:34:04;;;;;;;40.20;5.25;;;;;;;5.89;100.00;99868.16;5039771;28;20037;-74
2024/03/16 09:36:29;;;;;;;39.95;5.80;;;;;;;5.92;100.00;99884.78;5040535;28;20053;-74
2024/03/16 09:38:55;;;;;;;28.40;5.63;;;;;;;5.93;100.00;99881.13;5040527;28;20037;-74
2024/03/16 09:41:21;;;;;;;36.10;6.28;;;;;;;5.96;100.00;99880.75;5038903;28;20040;-74
2024/03/16 09:43:47;;;;;;;39.95;5.68;;;;;;;5.90;100.00;99877.00;5037508;28;20038;-74
2024/03/16 09:46:13;;;;;;;33.90;5.80;;;;;;;5.83;100.00;99876.94;5037154;28;20082;-74
2024/03/16 09:48:39;;;;;;;36.30;6.18;;;;;;;5.71;100.00;99866.94;5044448;28;20079;-74
2024/03/16 09:51:04;;;;;;;41.30;6.07;;;;;;;5.71;100.00;99875.78;5043732;28;20030;-74
2024/03/16 09:53:32;;;;;;;36.95;5.80;;;;;;;5.84;100.00;99893.78;5046971;28;20033;-74
2024/03/16 09:56:04;;;;;;;44.53;7.07;;;;;;;5.84;100.00;99893.78;5067208;28;20025;-74
2024/03/16 09:58:30;;;;;;;36.58;6.57;;;;;;;5.73;100.00;99875.56;5050732;28;20096;-74
2024/03/16 10:01:00;;;;;;;40.80;6.50;;;;;;;5.82;100.00;99893.13;5033738;28;20146;-74
2024/03/16 10:03:25;;;;;;;75.55;9.55;;;;;;;5.87;100.00;99894.22;5050969;28;20159;-74
2024/03/16 10:05:51;;;;;;;52.78;6.03;;;;;;;5.73;100.00;99871.09;5051387;28;20034;-74
2024/03/16 10:08:21;;;;;;;90.07;9.90;;;;;;;5.84;100.00;99891.09;5050585;28;20037;-74
2024/03/16 10:10:47;;;;;;;96.95;11.40;;;;;;;5.84;100.00;99886.59;5048267;28;20036;-74
2024/03/16 10:13:12;;;;;;;71.55;9.98;;;;;;;5.88;100.00;99889.69;5040095;28;20030;-74
2024/03/16 10:15:44;;;;;;;58.78;8.93;;;;;;;5.88;100.00;99885.19;5042746;28;20056;-74
2024/03/16 10:18:11;;;;;;;36.08;5.70;;;;;;;5.66;100.00;99848.81;5040657;28;20097;-74
2024/03/16 10:20:37;;;;;;;36.00;5.72;;;;;;;5.94;100.00;99883.63;5057544;28;20082;-74
2024/03/16 10:23:03;;;;;;;46.58;6.97;;;;;;;6.00;100.00;99884.72;5041235;28;20033;-74
2024/03/16 10:25:31;;;;;;;43.55;6.60;;;;;;;6.03;100.00;99887.81;5039224;28;20369;-74
2024/03/16 10:27:56;;;;;;;42.67;7.05;;;;;;;6.01;100.00;99879.16;5035498;28;20408;-74
2024/03/16 10:30:23;;;;;;;39.53;6.20;;;;;;;5.98;100.00;99878.72;5036435;28;20038;-74
2024/03/16 10:32:49;;;;;;;34.80;6.20;;;;;;;6.02;100.00;99874.66;5035370;28;20033;-74
2024/03/16 10:35:25;;;;;;;36.65;5.50;;;;;;;5.98;100.00;99887.56;5036186;28;20033;-74
2024/03/16 10:37:51;;;;;;;76.90;10.25;;;;;;;6.02;100.00;99886.16;5050904;28;20037;-74
2024/03/16 10:40:18;;;;;;;68.95;9.63;;;;;;;5.97;100.00;99871.75;5052162;28;20260;-74
2024/03/16 10:42:44;;;;;;;71.90;10.10;;;;;;;5.97;100.00;99874.41;5034627;28;20392;-74
2024/03/16 10:45:17;;;;;;;48.15;7.82;;;;;;;6.10;100.00;99887.88;5035999;28;20450;-74
2024/03/16 10:47:52;;;;;;;43.95;7.57;;;;;;;6.13;100.00;99898.19;5035889;28;20107;-74
2024/03/16 10:50:24;;;;;;;48.42;7.82;;;;;;;6.14;100.00;99886.47;5034742;28;20021;-74
2024/03/16 10:52:51;;;;;;;41.72;7.18;;;;;;;6.07;100.00;99873.06;5035325;28;20042;-74
2024/03/16 10:55:24;;;;;;;42.67;6.68;;;;;;;6.21;100.00;99867.81;5034925;28;20450;-74
2024/03/16 10:57:54;;;;;;;48.17;7.43;;;;;;;6.32;100.00;99896.66;5035058;28;20079;-74
2024/03/16 11:00:35;;;;;;;49.78;7.00;;;;;;;6.31;100.00;99884.34;5037043;28;20124;-74
2024/03/16 11:03:12;;;;;;;41.85;7.30;;;;;;;6.35;100.00;99888.28;5037840;28;20079;-74
2024/03/16 11:05:40;;;;;;;49.05;7.00;;;;;;;6.30;100.00;99890.72;5039851;28;20049;-74
2024/03/16 11:08:14;;;;;;;41.70;6.35;;;;;;;6.35;100.00;99877.59;5038360;28;20033;-74
2024/03/16 11:10:48;;;;;;;54.25;9.02;;;;;;;6.32;100.00;99883.31;5054778;28;20029;-73
2024/03/16 11:13:20;;;;;;;41.08;7.00;;;;;;;6.34;100.00;99889.31;5038115;28;20400;-74
2024/03/16 11:15:48;;;;;;;51.50;8.63;;;;;;;6.26;100.00;99886.78;5037961;28;20072;-74
2024/03/16 11:18:23;;;;;;;51.17;7.90;;;;;;;6.28;100.00;99890.06;5038390;28;20029;-74